Snake Valley, Nevada Weather observations

Data are for 10 minute period ending at time listed.
 Day   Time   Solar   Ave.   Ave.  Ave.  Vector  Max.   Baro.   Total    
  of    of     Rad.   Air    Rel.  Wind   Wind   Wind  Press.  Precip.   
Year   Day            Temp.  Hum.  Speed  Dir.   Gust                    
2014   (PST)  Kw/m2    F      %     mph   deg.    mph    mb.     in.     
-------------------------------------------------------------------------
 274    7:00   0.08   46.3    73    2.4   222     3.6   843.1    0.00 
 274    7:10   0.11   46.8    73    0.6   225     1.7   843.2    0.00 
 274    7:20   0.14   47.0    69    2.0   309     4.6   843.4    0.00 
 274    7:30   0.17   47.0    66    2.4    19     4.0   843.5    0.00 
 274    7:40   0.20   47.6    66    3.0    51     6.3   843.6    0.00 
 274    7:50   0.18   47.6    64    2.0    83     5.2   843.7    0.00 
 274    8:00   0.18   47.7    66    2.3    80     4.0   843.8    0.00 
 274    8:10   0.17   47.8    65    1.3    19     2.7   843.8    0.00 
 274    8:20   0.19   48.1    62    1.1    33     2.0   843.8    0.00 
 274    8:30   0.51   49.6    58    0.8   344     2.5   843.8    0.00 
 274    8:40   0.54   50.6    55    1.7   294     3.7   844.0    0.00 
 274    8:50   0.57   50.6    54    1.9   249     5.3   844.1    0.00 
 274    9:00   0.60   52.2    52    2.2    61     5.5   844.2    0.00 
 274    9:10   0.56   51.8    53    2.4    45     6.6   844.2    0.00 
 274    9:20   0.66   51.8    53    3.5    82     6.1   844.2    0.00 
 274    9:30   0.67   52.5    52    2.7    95     5.1   844.3    0.00 
 274    9:40   0.68   52.5    49    3.1   336     6.5   844.3    0.00 
 274    9:50   0.57   52.9    49    3.5    53     9.0   844.3    0.00 
 274   10:00   0.74   52.2    49    3.8    93     8.2   844.3    0.00 
 274   10:10   0.74   53.9    45    1.6   356     3.4   844.2    0.00 
 274   10:20   0.71   53.9    44    5.2    70     9.3   844.1    0.00 
 274   10:30   0.79   54.4    42    3.8    51     7.6   844.1    0.00 
 274   10:40   0.79   54.5    41    4.3    36     9.3   844.2    0.00 
 274   10:50   0.84   54.9    38    6.6    32    10.5   844.2    0.00 
 274   11:00   0.80   54.9    35    4.3    66     7.7   844.1    0.00 
 274   11:10   0.81   55.0    39    7.1    71    12.5   844.1    0.00 
 274   11:20   0.85   55.3    35    5.8    97    11.0   844.0    0.00 
 274   11:30   0.90   56.4    32    2.8    99     5.8   843.9    0.00 
 274   11:40   0.96   57.4    33    7.9    46    14.8   843.9    0.00 
 274   11:50   0.90   56.8    34    8.3    37    14.0   844.0    0.00 
 274   12:00   0.88   56.6    32    7.5    65    15.0   843.8    0.00 
 274   12:10   0.82   56.4    32    8.5    44    13.6   843.8    0.00 
 274   12:20   0.79   56.6    32    5.9    18    13.7   843.7    0.00 
 274   12:30   0.79   56.9    31    5.6    42    13.6   843.6    0.00 
 274   12:40   0.78   56.7    34    8.4    51    16.0   843.5    0.00 
 274   12:50   0.76   57.2    34    9.8    44    15.6   843.5    0.00 
 274   13:00   0.75   56.7    32   10.3    33    17.3   843.5    0.00 
 274   13:10   0.73   56.7    33    9.4    49    14.8   843.4    0.00 
 274   13:20   0.72   57.3    33   10.1    27    15.1   843.4    0.00 
 274   13:30   0.70   57.3    32    8.0    43    14.2   843.4    0.00 
 274   13:40   0.68   57.3    33    8.7    29    14.8   843.4    0.00 
 274   13:50   0.66   57.4    31    7.1    49    15.0   843.5    0.00 
 274   14:00   0.63   57.9    32    7.7    44    13.6   843.5    0.00 
 274   14:10   0.61   57.7    31    7.4    47    12.2   843.4    0.00 
 274   14:20   0.58   58.3    32    7.4    36    11.2   843.5    0.00 
 274   14:30   0.55   58.2    30    6.9    36    11.6   843.5    0.00 
 274   14:40   0.52   58.0    29    7.0    41    11.5   843.5    0.00 
 274   14:50   0.49   58.1    29    6.8    30    12.1   843.5    0.00 
 274   15:00   0.46   58.3    29    5.2    23     9.8   843.7    0.00 
 274   15:10   0.43   58.3    30    7.1    58    12.8   843.6    0.00 
 274   15:20   0.40   58.1    29    6.7    45     9.8   843.7    0.00 
 274   15:30   0.37   58.1    30    5.7    28    10.6   843.8    0.00 
 274   15:40   0.33   57.6    30    7.5    39    10.8   843.9    0.00 
 274   15:50   0.30   57.3    31    7.0    27    10.8   844.0    0.00 
 274   16:00   0.26   57.0    32    7.4    48    10.9   844.1    0.00 
 274   16:10   0.23   56.6    34    7.6    27    12.1   844.2    0.00 
 274   16:20   0.19   56.1    34    8.3    25    12.1   844.2    0.00 
 274   16:30   0.16   55.7    35    6.7    28    10.2   844.2    0.00 
 274   16:40   0.13   54.9    38    6.9    26    10.7   844.4    0.00 
 274   16:50   0.07   53.9    39    7.6    25    11.1   844.5    0.00 
 274   17:00   0.02   52.2    44    6.0    22     9.3   844.5    0.00 
 274   17:10   0.01   50.8    48    5.6    23     7.6   844.6    0.00 
 274   17:20   0.01   49.7    50    5.3    25     7.5   844.7    0.00 
 274   17:30   0.01   48.9    53    5.3    26     8.3   844.8    0.00 
 274   17:40   0.00   47.9    55    4.8    27     6.6   844.9    0.00 
 274   17:50   0.00   46.8    58    4.8    18     6.0   845.1    0.00 
 274   18:00   0.00   47.4    56    3.5    31     4.6   845.2    0.00 
 274   18:10   0.00   46.6    58    3.0    44     6.1   845.3    0.00 
 274   18:20   0.00   46.2    59    3.0    45     5.4   845.4    0.00 
 274   18:30   0.00   43.8    66    2.8   296     4.0   845.6    0.00 
 274   18:40   0.00   43.3    68    2.2   263     4.2   845.7    0.00 
 274   18:50   0.00   44.0    65    2.7   256     5.0   845.9    0.00 
 274   19:00   0.00   46.1    59    1.7   181     4.8   846.0    0.00 
 274   19:10   0.00   45.8    60    0.5   184     2.1   846.1    0.00 
 274   19:20   0.00   44.7    63    1.0   290     3.0   846.2    0.00 
 274   19:30   0.00   45.3    61    2.1   348     4.8   846.3    0.00 
 274   19:40   0.00   45.9    59    2.0    55     3.4   846.3    0.00 
 274   19:50   0.00   46.0    58    1.8    20     3.0   846.4    0.00 
 274   20:00   0.00   45.0    60    1.6   282     4.1   846.5    0.00 
 274   20:10   0.00   39.1    77    2.2   273     4.8   846.6    0.00 
 274   20:20   0.00   41.1    73    2.0   244     4.0   846.6    0.00 
 274   20:30   0.00   40.0    74    3.1   256     4.6   846.5    0.00 
 274   20:40   0.00   40.8    73    4.7   273     6.3   846.6    0.00 
 274   20:50   0.00   41.3    71    3.5   278     5.6   846.7    0.00 
 274   21:00   0.00   39.9    76    4.0   269     5.6   846.8    0.00 
 274   21:10   0.00   39.1    77    3.1   263     5.1   846.8    0.00 
 274   21:20   0.00   39.7    76    3.7   256     5.0   846.9    0.00 
 274   21:30   0.00   39.3    75    2.5   269     3.4   846.9    0.00 
 274   21:40   0.00   38.1    79    2.7   287     3.6   846.9    0.00 
 274   21:50   0.00   38.0    81    2.9   309     4.2   846.9    0.00 
 274   22:00   0.00   38.8    78    4.0   284     4.6   846.9    0.00 
 274   22:10   0.00   39.2    76    3.4   280     4.7   846.9    0.00 
 274   22:20   0.00   37.6    79    3.7   305     4.7   846.9    0.00 
 274   22:30   0.00   37.3    82    4.3   318     5.6   847.0    0.00 
 274   22:40   0.00   37.7    83    4.3   305     5.3   847.0    0.00 
 274   22:50   0.00   37.1    84    4.8   302     6.1   847.0    0.00 
 274   23:00   0.00   36.6    85    4.2   302     5.0   847.0    0.00 
 274   23:10   0.00   36.2    86    3.9   300     5.0   846.9    0.00 
 274   23:20   0.00   35.7    86    4.4   295     5.3   846.8    0.00 
 274   23:30   0.00   35.6    86    3.6   300     4.6   846.7    0.00 
 274   23:40   0.00   35.0    87    2.1   289     3.2   846.7    0.00 
 274   23:50   0.00   34.3    88    1.6   269     3.1   846.6    0.00 
 275    0:00   0.00   34.0    88    3.3   274     4.2   846.6    0.00 
 275    0:10   0.00   33.9    89    3.6   274     4.3   846.7    0.00 
 275    0:20   0.00   34.1    89    3.4   279     4.0   846.8    0.00 
 275    0:30   0.00   33.6    88    3.5   269     5.0   846.9    0.00 
 275    0:40   0.00   33.4    90    3.3   258     4.2   846.9    0.00 
 275    0:50   0.00   34.0    90    3.7   249     5.0   847.0    0.00 
 275    1:00   0.00   34.7    88    1.7   244     2.6   847.0    0.00 
 275    1:10   0.00   34.6    86    2.1   258     2.9   847.0    0.00 
 275    1:20   0.00   33.8    88    3.6   245     4.1   847.0    0.00 
 275    1:30   0.00   34.8    86    2.4   278     3.6   846.9    0.00 
 275    1:40   0.00   33.4    86    1.9   313     3.0   847.0    0.00 
 275    1:50   0.00   34.1    89    2.9   342     3.7   846.9    0.00 
 275    2:00   0.00   35.8    85    2.7   327     3.7   846.9    0.00 
 275    2:10   0.00   34.5    83    0.6   297     2.6   846.9    0.00 
 275    2:20   0.00   32.8    87    0.3   144     2.3   846.9    0.00 
 275    2:30   0.00   32.4    88    1.5   118     4.7   846.9    0.00 
 275    2:40   0.00   32.2    90    0.6   134     1.8   847.0    0.00 
 275    2:50   0.00   33.5    90    0.8   154     3.0   847.1    0.00 
 275    3:00   0.00   31.8    88    1.3   252     3.1   847.3    0.00 
 275    3:10   0.00   31.1    90    2.2   291     3.7   847.4    0.00 
 275    3:20   0.00   30.7    91    1.0   278     2.8   847.5    0.00 
 275    3:30   0.00   30.6    92    2.0   254     2.7   847.5    0.00 
 275    3:40   0.00   31.7    93    3.4   272     4.6   847.5    0.00 
 275    3:50   0.00   31.5    90    4.1   282     5.0   847.5    0.00 
 275    4:00   0.00   30.9    91    4.0   287     5.3   847.4    0.00 
 275    4:10   0.00   31.0    91    5.1   295     6.4   847.5    0.00 
 275    4:20   0.00   31.0    91    4.0   295     5.7   847.6    0.00 
 275    4:30   0.00   30.5    92    3.5   294     5.0   847.6    0.00 
 275    4:40   0.00   30.4    92    3.3   297     4.2   847.6    0.00 
 275    4:50   0.00   30.5    93    3.4   300     4.4   847.7    0.00 
 275    5:00   0.00   30.3    92    2.1   204     4.5   847.9    0.00 
 275    5:10   0.00   30.4    93    1.6   183     2.7   847.9    0.00 
 275    5:20   0.00   31.7    92    1.3   152     2.0   848.0    0.00 
 275    5:30   0.00   32.2    91    0.9   149     1.2   848.1    0.00 
 275    5:40   0.01   31.5    90    2.0   138     2.6   848.1    0.00 
 275    5:50   0.02   30.6    90    0.2   167     1.6   848.4    0.00 
 275    6:00   0.05   31.0    91    1.5     1     2.1   848.6    0.00 
 275    6:10   0.07   31.8    91    0.3   350     1.5   848.6    0.00 
 275    6:20   0.10   32.6    90    0.0     0     0.0   848.7    0.00 
 275    6:30   0.12   33.7    89    0.0     0     0.0   848.6    0.00 
 275    6:40   0.16   36.1    89    0.1   125     0.9   848.7    0.00 
 275    6:50   0.18   37.8    84    1.2   120     2.3   848.9    0.00 

Return to Snake Valley graphs page.


Western Regional Climate Center,wrcc@dri.edu